Latest Weather Observations for Hobart

IDT60901

Issued at 7:51 pm EST Sunday 20 August 2017 (issued every 10 minutes, with the page automatically refreshed every 10 minutes)

About weather observations | Map of Hobart area stations | Latest observations for Hobart area | Other Formats
Station Details ID: 094029 Name: HOBART (ELLERSLIE ROAD) Lat: -42.89 Lon: 147.33 Height: 50.5 m
Data from the previous 72 hours. | See also: Recent months at Hobart
Date/Time
EST
Temp
°C
App
Temp
°C
Dew
Point
°C
Rel
Hum
%
Delta-T
°C
Wind Press
QNH
hPa
Press
MSL
hPa
Rain since
9am
mm
Dir  Spd
km/h
Gust
km/h
Spd
kts
Gust
kts
20/07:30pm 7.1 3.9 3.2 76 1.6 W 9 13 5 7 1017.7 1017.8 0.0
20/07:00pm 7.8 4.2 3.1 72 2.0 WSW 11 13 6 7 1017.8 1017.9 0.0
20/06:30pm 8.3 4.7 3.2 70 2.2 W 11 17 6 9 1017.9 1018.0 0.0
20/06:00pm 8.9 5.7 3.3 68 2.4 WSW 9 13 5 7 1017.6 1017.7 0.0
20/05:30pm 9.8 7.1 2.9 62 3.0 E 6 7 3 4 1017.6 1017.7 0.0
20/05:00pm 10.6 8.3 2.9 59 3.3 E 4 7 2 4 1017.7 1017.8 0.0
20/04:30pm 11.4 8.6 2.9 56 3.7 ESE 7 9 4 5 1017.8 1017.9 0.0
20/04:00pm 11.5 8.3 3.0 56 3.7 E 9 13 5 7 1017.8 1017.9 0.0
20/03:30pm 11.8 8.1 2.3 52 4.1 SE 11 17 6 9 1017.8 1017.9 0.0
20/03:00pm 11.9 8.2 2.6 53 4.0 SE 11 17 6 9 1017.9 1018.0 0.0
20/02:30pm 12.2 9.5 2.6 52 4.2 ESE 6 13 3 7 1018.0 1018.1 0.0
20/02:00pm 12.4 8.0 2.6 51 4.3 NNW 15 28 8 15 1018.3 1018.4 0.0
20/01:30pm 13.4 10.5 2.6 48 4.8 N 7 13 4 7 1018.6 1018.7 0.0
20/01:00pm 13.4 8.3 2.9 49 4.7 NW 19 26 10 14 1019.1 1019.2 0.0
20/12:30pm 12.8 7.7 3.2 52 4.3 NW 19 28 10 15 1019.5 1019.6 0.0
20/12:00pm 11.8 6.5 3.1 55 3.8 NW 20 32 11 17 1020.2 1020.3 0.0
20/11:30am 11.4 6.0 2.7 55 3.8 NW 20 30 11 16 1020.8 1020.9 0.0
20/11:00am 10.6 5.4 2.4 57 3.5 NNW 19 24 10 13 1021.2 1021.3 0.0
20/10:30am 10.4 5.6 2.7 59 3.3 NNW 17 26 9 14 1021.4 1021.5 0.0
20/10:00am 8.9 4.0 2.0 62 2.9 NW 17 24 9 13 1021.7 1021.8 0.0
20/09:30am 7.7 3.5 1.5 65 2.5 NW 13 20 7 11 1021.8 1021.9 0.0
20/09:00am 5.9 2.8 1.2 72 1.9 WNW 7 13 4 7 1021.9 1022.0 0.2
20/08:30am 3.7 1.4 0.6 80 1.2 NW 2 9 1 5 1022.1 1022.2 0.2
20/08:00am 2.7 -0.4 0.3 84 0.9 WSW 6 9 3 5 1022.3 1022.4 0.2
20/07:30am 1.7 -1.1 -0.2 87 0.7 W 4 11 2 6 1022.3 1022.4 0.2
20/07:00am 1.0 -2.8 -0.8 88 0.6 W 9 13 5 7 1022.1 1022.2 0.2
20/06:30am 1.1 -2.3 -0.8 87 0.7 W 7 13 4 7 1022.0 1022.1 0.2
20/06:00am 1.3 -2.1 -0.8 86 0.7 W 7 11 4 6 1022.0 1022.1 0.2
20/05:30am 1.4 -2.0 -0.7 86 0.8 WNW 7 9 4 5 1022.0 1022.1 0.2
20/05:00am 1.4 -2.4 -0.7 86 0.7 W 9 13 5 7 1022.1 1022.2 0.2
20/04:30am 1.7 -2.1 -0.5 85 0.8 WSW 9 17 5 9 1022.0 1022.1 0.2
20/04:00am 1.8 -1.4 -0.4 85 0.8 WSW 6 15 3 8 1022.0 1022.1 0.2
20/03:30am 1.6 -2.5 -0.5 86 0.8 W 11 17 6 9 1022.0 1022.1 0.2
20/03:00am 2.1 -1.6 -0.2 85 0.8 WSW 9 13 5 7 1022.1 1022.2 0.2
20/02:30am 2.4 -0.9 -0.2 83 1.0 SW 7 9 4 5 1022.2 1022.3 0.2
20/02:00am 2.0 -1.3 -0.2 85 0.8 W 7 13 4 7 1022.5 1022.6 0.2
20/01:30am 2.1 -1.1 -0.5 83 0.9 WSW 6 13 3 7 1022.6 1022.7 0.2
20/01:00am 2.0 -1.4 -0.6 83 0.9 WSW 7 13 4 7 1022.8 1022.9 0.2
20/12:30am 2.6 -1.1 -0.2 82 1.0 SW 9 13 5 7 1023.0 1023.1 0.2
20/12:00am 2.6 -0.7 -0.2 82 1.0 WSW 7 9 4 5 1023.1 1023.2 0.2
 
Date/Time
EST
Temp
°C
App
Temp
°C
Dew
Point
°C
Rel
Hum
%
Delta-T
°C
Wind Press
QNH
hPa
Press
MSL
hPa
Rain since
9am
mm
Dir  Spd
km/h
Gust
km/h
Spd
kts
Gust
kts
19/11:30pm 2.4 -1.4 -0.5 81 1.1 WSW 9 13 5 7 1022.9 1023.0 0.2
19/11:00pm 2.8 -0.9 -0.1 81 1.1 WSW 9 13 5 7 1022.9 1023.0 0.2
19/10:30pm 3.1 -0.1 -0.2 79 1.2 WSW 6 15 3 8 1023.0 1023.1 0.2
19/10:00pm 3.3 -0.4 0.2 80 1.2 W 9 13 5 7 1023.2 1023.3 0.2
19/09:30pm 3.7 1.4 0.4 79 1.3 NNW 2 7 1 4 1023.3 1023.4 0.2
19/09:00pm 3.9 0.3 0.4 78 1.3 WSW 9 15 5 8 1023.3 1023.4 0.2
19/08:30pm 4.5 2.6 0.5 75 1.5 CALM 0 9 0 5 1023.3 1023.4 0.2
19/08:00pm 5.0 3.1 0.4 72 1.8 CALM 0 7 0 4 1023.2 1023.3 0.2
19/07:30pm 5.7 2.5 0.5 69 2.0 ESE 7 11 4 6 1023.3 1023.4 0.2
19/07:00pm 6.7 3.6 0.2 63 2.5 E 6 9 3 5 1023.3 1023.4 0.2
19/06:30pm 7.4 4.0 -0.3 58 3.0 SSW 7 13 4 7 1023.1 1023.2 0.2
19/06:00pm 8.2 3.6 -0.8 53 3.5 W 13 24 7 13 1023.0 1023.1 0.2
19/05:30pm 7.7 3.0 0.9 62 2.7 SSW 15 26 8 14 1022.9 1023.0 0.2
19/05:00pm 8.4 2.7 0.4 57 3.2 WSW 20 32 11 17 1023.1 1023.2 0.2
19/04:30pm 8.3 4.8 1.2 61 2.9 SSW 9 11 5 6 1022.8 1022.9 0.2
19/04:00pm 8.8 5.9 1.7 61 2.9 S 6 11 3 6 1022.6 1022.7 0.2
19/03:30pm 8.9 4.0 2.3 63 2.8 SSW 17 26 9 14 1022.5 1022.6 0.2
19/03:00pm 9.2 3.7 1.6 59 3.1 SSW 20 33 11 18 1022.4 1022.5 0.2
19/02:30pm 10.1 5.6 2.2 58 3.4 SW 15 28 8 15 1022.3 1022.4 0.2
19/02:00pm 10.2 5.7 0.0 49 4.1 SSW 13 30 7 16 1022.1 1022.2 0.2
19/01:30pm 11.4 5.7 -0.4 44 4.8 W 19 33 10 18 1022.1 1022.2 0.2
19/01:00pm 10.7 5.1 -0.1 47 4.3 SW 19 37 10 20 1022.1 1022.2 0.0
19/12:30pm 10.7 4.4 -0.7 45 4.5 WSW 22 39 12 21 1022.1 1022.2 0.0
19/12:00pm 9.8 2.3 -1.3 46 4.3 WSW 28 44 15 24 1022.3 1022.4 0.0
19/11:30am 9.3 1.4 -1.7 46 4.2 WSW 30 48 16 26 1022.6 1022.7 0.0
19/11:23am 9.2 1.6 -1.8 46 4.2 SW 28 48 15 26 1022.6 1022.7 0.0
19/11:00am 9.9 4.4 -2.4 42 4.7 WSW 17 28 9 15 1022.7 1022.8 0.0
19/10:30am 9.1 3.2 -2.2 45 4.3 WSW 19 30 10 16 1022.7 1022.8 0.0
19/10:00am 8.6 1.8 -2.1 47 4.0 WSW 24 37 13 20 1022.7 1022.8 0.0
19/09:30am 8.2 1.9 -1.3 51 3.6 WSW 22 41 12 22 1022.7 1022.8 0.0
19/09:00am 7.5 2.1 -1.2 54 3.3 WSW 17 28 9 15 1022.6 1022.7 6.0
19/08:30am 6.8 1.8 -1.3 56 3.1 W 15 24 8 13 1022.6 1022.7 6.0
19/08:00am 4.9 1.5 -0.7 67 2.1 WSW 7 13 4 7 1022.4 1022.5 6.0
19/07:30am 5.0 0.8 -1.2 64 2.3 SW 11 17 6 9 1021.9 1022.0 6.0
19/07:00am 4.2 1.7 -1.2 68 2.0 SSE 2 9 1 5 1021.5 1021.6 6.0
19/06:30am 4.9 0.3 -1.3 64 2.3 WSW 13 22 7 12 1021.0 1021.1 6.0
19/06:00am 4.9 0.6 -1.3 64 2.3 WSW 11 19 6 10 1020.6 1020.7 6.0
19/05:30am 5.5 -0.5 -1.2 62 2.5 SW 20 32 11 17 1020.3 1020.4 6.0
19/05:00am 4.9 -1.0 -0.7 67 2.1 SW 20 33 11 18 1019.9 1020.0 6.0
19/04:30am 5.6 -0.3 -1.1 62 2.5 SW 20 32 11 17 1019.7 1019.8 6.0
19/04:00am 5.8 -0.1 -2.3 56 2.9 SW 19 35 10 19 1019.2 1019.3 6.0
19/03:30am 5.7 -0.5 -2.9 54 3.1 SW 20 32 11 17 1018.8 1018.9 6.0
19/03:00am 6.2 1.0 -2.7 53 3.2 SSW 15 30 8 16 1018.5 1018.6 6.0
19/02:30am 5.9 -0.1 -2.9 53 3.2 SW 19 28 10 15 1018.2 1018.3 6.0
19/02:00am 5.9 -1.0 -2.4 55 3.0 SW 24 37 13 20 1017.9 1018.0 6.0
19/01:30am 6.0 -0.8 -1.6 58 2.8 SW 24 33 13 18 1017.8 1017.9 6.0
19/01:08am 6.0 -1.5 -1.4 59 2.8 SW 28 46 15 25 1017.7 1017.8 6.0
19/01:00am 6.0 -1.9 -1.4 59 2.7 SW 30 44 16 24 1017.5 1017.6 6.0
19/12:30am 5.9 -0.5 -1.5 59 2.7 SSW 22 35 12 19 1017.0 1017.1 6.0
19/12:00am 5.6 -1.5 -1.3 61 2.6 SW 26 39 14 21 1016.6 1016.7 6.0
 
Date/Time
EST
Temp
°C
App
Temp
°C
Dew
Point
°C
Rel
Hum
%
Delta-T
°C
Wind Press
QNH
hPa
Press
MSL
hPa
Rain since
9am
mm
Dir  Spd
km/h
Gust
km/h
Spd
kts
Gust
kts
18/11:30pm 5.3 0.1 -0.1 68 2.1 SSW 17 24 9 13 1016.6 1016.7 6.0
18/11:00pm 5.2 0.8 0.4 71 1.8 S 13 22 7 12 1016.5 1016.6 6.0
18/10:30pm 5.0 -1.5 0.6 73 1.7 SW 24 35 13 19 1016.1 1016.2 6.0
18/10:00pm 4.8 -1.6 0.8 75 1.6 SSW 24 37 13 20 1015.8 1015.9 6.0
18/09:30pm 5.4 -0.4 0.0 68 2.1 SSW 20 32 11 17 1015.5 1015.6 6.0
18/09:00pm 5.4 -0.8 -0.2 67 2.1 SSW 22 37 12 20 1014.8 1014.9 6.0
18/08:30pm 5.2 -0.5 0.4 71 1.9 SSW 20 30 11 16 1014.2 1014.3 6.0
18/08:00pm 4.9 0.2 0.9 75 1.6 SSW 15 24 8 13 1013.7 1013.8 6.0
18/07:30pm 4.9 0.0 1.7 80 1.3 S 17 28 9 15 1013.4 1013.5 6.0
18/07:00pm 4.6 -1.2 2.1 84 1.0 SW 22 33 12 18 1013.0 1013.1 5.8
18/06:37pm 4.9 -2.1 2.1 82 1.1 SSW 28 54 15 29 1012.6 1012.7 5.6
18/06:35pm 5.0 -1.2 2.0 81 1.2 SSW 24 54 13 29 1012.5 1012.6 5.6
18/06:30pm 5.3 0.1 2.3 81 1.2 SSW 19 26 10 14 1012.5 1012.6 5.4
18/06:00pm 5.4 -0.1 2.1 79 1.3 SSW 20 39 11 21 1011.5 1011.5 5.2
18/05:30pm 5.1 0.2 2.3 82 1.1 SSW 17 26 9 14 1010.9 1010.9 5.2
18/05:00pm 5.5 0.3 2.5 81 1.2 S 19 30 10 16 1010.2 1010.3 4.8
18/04:30pm 5.9 0.1 2.5 79 1.4 SW 22 32 12 17 1009.2 1009.3 4.8
18/04:00pm 5.9 0.5 2.5 79 1.4 SW 20 33 11 18 1008.5 1008.6 4.8
18/03:30pm 5.2 -0.6 2.4 82 1.1 SW 22 35 12 19 1008.0 1008.1 4.8
18/03:00pm 5.2 -0.2 2.6 83 1.1 SW 20 28 11 15 1007.5 1007.6 4.4
18/02:30pm 5.7 0.6 3.0 83 1.1 SSW 19 28 10 15 1006.8 1006.9 4.0
18/02:00pm 6.6 0.9 3.0 78 1.5 SW 22 32 12 17 1006.0 1006.1 3.0
18/01:30pm 6.8 0.5 3.6 80 1.4 SSW 26 43 14 23 1005.7 1005.8 1.8
18/01:00pm 6.1 -1.7 3.1 81 1.3 SSW 33 52 18 28 1004.8 1004.9 1.6
18/12:42pm 7.4 0.8 4.2 80 1.4 SSW 28 46 15 25 1004.4 1004.5 0.8
18/12:30pm 6.9 -0.8 3.3 78 1.5 SSW 33 46 18 25 1004.3 1004.4 0.8
18/12:00pm 6.8 0.5 3.9 82 1.2 SSW 26 46 14 25 1004.1 1004.2 0.8
18/11:53am 6.5 -0.2 3.7 82 1.2 S 28 46 15 25 1004.1 1004.2 0.8
18/11:30am 8.1 3.2 2.1 66 2.5 SSW 17 30 9 16 1003.9 1004.0 0.0
18/11:00am 7.7 3.4 3.0 72 2.0 SSW 15 24 8 13 1003.5 1003.6 0.0
18/10:30am 8.2 2.7 1.6 63 2.7 SSW 20 33 11 18 1002.9 1003.0 0.0
18/10:00am 8.5 3.1 1.4 61 2.9 SW 19 35 10 19 1002.3 1002.4 0.0
18/09:30am 8.5 3.1 1.2 60 3.0 SW 19 32 10 17 1001.9 1002.0 0.0
18/09:00am 8.2 3.6 1.4 62 2.8 SW 15 28 8 15 1001.4 1001.5 1.4
18/08:30am 7.5 3.2 1.1 64 2.6 W 13 22 7 12 1000.8 1000.9 1.4
18/08:00am 6.0 3.0 1.9 75 1.7 NW 7 11 4 6 1000.5 1000.6 1.4
18/07:30am 6.3 3.7 1.2 70 2.0 W 4 13 2 7 999.9 1000.0 1.4
18/07:00am 6.4 2.2 1.5 71 2.0 WSW 13 24 7 13 999.2 999.3 1.4
18/06:30am 6.4 2.2 1.7 72 1.9 SW 13 24 7 13 998.6 998.7 1.4
18/06:00am 6.0 2.3 2.1 76 1.6 SW 11 26 6 14 998.1 998.2 1.4
18/05:30am 5.0 2.2 2.2 82 1.1 S 6 9 3 5 997.6 997.7 1.4
18/05:00am 4.4 1.0 2.1 85 0.9 W 9 26 5 14 997.2 997.3 1.4
18/04:30am 4.3 0.9 1.8 84 1.0 W 9 17 5 9 996.7 996.8 1.4
18/04:00am 4.5 2.1 2.0 84 1.0 WNW 4 11 2 6 996.2 996.3 1.4
18/03:30am 4.3 0.9 2.0 85 0.9 WNW 9 13 5 7 996.0 996.1 1.4
18/03:00am 4.8 1.8 2.0 82 1.1 NW 7 13 4 7 995.7 995.7 1.4
18/02:30am 4.8 3.1 1.7 80 1.2 CALM 0 6 0 3 995.5 995.5 1.4
18/02:00am 5.0 2.1 1.7 79 1.3 WNW 6 11 3 6 995.1 995.1 1.4
18/01:30am 6.1 3.3 1.8 74 1.7 SSW 6 9 3 5 994.9 994.9 1.4
18/01:00am 6.0 -0.1 2.5 78 1.5 NW 24 35 13 19 994.5 994.5 1.4
18/12:30am 6.3 0.2 2.6 77 1.5 WNW 24 35 13 19 994.1 994.1 1.4
18/12:00am 6.4 -0.5 2.5 76 1.6 NW 28 39 15 21 993.9 993.9 1.4
 
Date/Time
EST
Temp
°C
App
Temp
°C
Dew
Point
°C
Rel
Hum
%
Delta-T
°C
Wind Press
QNH
hPa
Press
MSL
hPa
Rain since
9am
mm
Dir  Spd
km/h
Gust
km/h
Spd
kts
Gust
kts
17/11:30pm 6.2 -0.3 2.8 79 1.4 NW 26 33 14 18 993.9 993.9 1.4
17/11:00pm 6.4 -0.1 2.9 78 1.5 NW 26 33 14 18 994.0 994.0 1.4
17/10:30pm 6.8 1.4 2.7 75 1.7 NW 20 32 11 17 994.4 994.4 1.4
17/10:00pm 6.4 1.7 2.9 78 1.5 WNW 17 28 9 15 994.1 994.1 1.4
17/09:30pm 6.9 0.1 3.0 76 1.6 NW 28 35 15 19 993.5 993.5 1.4
17/09:00pm 6.9 1.8 3.0 76 1.7 NW 19 32 10 17 993.5 993.5 1.4
17/08:30pm 7.1 1.4 2.6 73 1.9 NW 22 33 12 18 993.2 993.2 1.4
17/08:00pm 6.8 0.7 2.7 75 1.7 NNW 24 35 13 19 992.9 992.9 1.4

Latest Capital City Observations: Canberra | Sydney | Melbourne | Brisbane | Adelaide | Perth | Hobart | Darwin

Other Formats:

Comma delimited format used in spreadsheet applications
http://www.bom.gov.au/fwo/IDT60901/IDT60901.94970.axf

JavaScript Object Notation format (JSON) in row-major order
http://www.bom.gov.au/fwo/IDT60901/IDT60901.94970.json